createdAt,value
2023-02-19T00:01:54.005Z,36.47
2023-02-19T00:04:23.799Z,36.73
2023-02-19T00:06:52.065Z,37.87
2023-02-19T00:09:21.913Z,38.97
2023-02-19T00:11:50.118Z,39.10
2023-02-19T00:14:21.026Z,40.33
2023-02-19T00:16:49.992Z,40.47
2023-02-19T00:19:19.963Z,40.13
2023-02-19T00:21:48.440Z,40.30
2023-02-19T00:24:16.748Z,40.10
2023-02-19T00:26:47.342Z,39.23
2023-02-19T00:29:17.621Z,38.67
2023-02-19T00:31:46.570Z,37.20
2023-02-19T00:34:15.495Z,36.00
2023-02-19T00:36:44.483Z,35.67
2023-02-19T00:39:16.128Z,35.27
2023-02-19T00:41:45.643Z,36.43
2023-02-19T00:44:15.893Z,36.27
2023-02-19T00:46:45.990Z,36.00
2023-02-19T00:49:17.598Z,36.47
2023-02-19T00:51:45.723Z,35.63
2023-02-19T00:54:14.144Z,35.57
2023-02-19T00:56:42.407Z,35.97
2023-02-19T00:59:10.911Z,35.10
2023-02-19T01:01:40.721Z,34.97
2023-02-19T01:04:09.130Z,35.33
2023-02-19T01:06:37.552Z,35.07
2023-02-19T01:09:07.177Z,35.40
2023-02-19T01:11:36.032Z,35.43
2023-02-19T01:14:05.132Z,34.80
2023-02-19T01:16:33.290Z,35.07
2023-02-19T01:19:02.769Z,34.60
2023-02-19T01:21:31.968Z,34.07
2023-02-19T01:24:00.249Z,33.17
2023-02-19T01:26:30.185Z,33.53
2023-02-19T01:28:59.698Z,32.67
2023-02-19T01:31:28.803Z,32.20
2023-02-19T01:33:59.208Z,31.73
2023-02-19T01:36:29.422Z,31.17
2023-02-19T01:38:57.693Z,30.33
2023-02-19T01:41:26.935Z,29.83
2023-02-19T01:44:02.214Z,28.20
2023-02-19T01:46:32.792Z,27.60
2023-02-19T01:49:05.691Z,27.07
2023-02-19T01:51:37.678Z,26.30
2023-02-19T01:54:09.401Z,26.93
2023-02-19T01:56:39.537Z,26.73
2023-02-19T01:59:08.567Z,28.07
2023-02-19T02:01:38.565Z,28.03
2023-02-19T02:04:08.044Z,28.90
2023-02-19T02:06:43.533Z,30.80
2023-02-19T02:09:29.228Z,30.97
2023-02-19T02:11:57.329Z,33.13
2023-02-19T02:14:28.614Z,33.70
2023-02-19T02:17:03.206Z,34.60
2023-02-19T02:19:44.993Z,36.30
2023-02-19T02:22:20.629Z,38.23
2023-02-19T02:25:06.445Z,38.27
2023-02-19T02:27:50.315Z,38.67
2023-02-19T02:30:40.721Z,38.17
2023-02-19T02:33:18.009Z,39.13
2023-02-19T02:35:51.477Z,38.30
2023-02-19T02:38:26.424Z,37.60
2023-02-19T02:40:56.640Z,36.70
2023-02-19T02:43:25.486Z,37.00
2023-02-19T02:45:54.964Z,36.97
2023-02-19T02:48:34.003Z,36.43
2023-02-19T02:51:07.798Z,36.67
2023-02-19T02:54:05.436Z,37.10
2023-02-19T02:56:35.531Z,38.00
2023-02-19T02:59:08.259Z,37.93
2023-02-19T03:02:00.673Z,38.80
2023-02-19T03:04:34.049Z,39.67
2023-02-19T03:07:08.357Z,39.23
2023-02-19T03:09:43.238Z,39.40
2023-02-19T03:12:36.177Z,39.20
2023-02-19T03:15:27.663Z,39.30
2023-02-19T03:18:19.460Z,39.07
2023-02-19T03:20:51.918Z,39.30
2023-02-19T03:23:44.635Z,38.60
2023-02-19T03:26:13.812Z,39.17
2023-02-19T03:29:08.850Z,39.47
2023-02-19T03:31:42.340Z,40.10
2023-02-19T03:34:16.133Z,41.07
2023-02-19T03:36:46.997Z,41.90
2023-02-19T03:39:21.259Z,42.57
2023-02-19T03:41:58.305Z,44.20
2023-02-19T03:44:35.886Z,45.73
2023-02-19T03:47:13.418Z,46.87
2023-02-19T03:49:49.108Z,48.30
2023-02-19T03:52:25.094Z,48.83
2023-02-19T03:54:58.332Z,50.57
2023-02-19T03:57:35.039Z,51.63
2023-02-19T04:00:10.101Z,52.23
2023-02-19T04:02:45.690Z,53.30
2023-02-19T04:05:19.698Z,54.47
2023-02-19T04:07:51.083Z,55.23
2023-02-19T04:10:25.006Z,55.77
2023-02-19T04:13:00.644Z,55.97
2023-02-19T04:15:33.386Z,55.80
2023-02-19T04:18:05.727Z,56.87
2023-02-19T04:20:40.994Z,56.90
2023-02-19T04:23:09.804Z,56.67
2023-02-19T04:25:40.702Z,56.60
2023-02-19T04:28:10.065Z,56.80
2023-02-19T04:30:38.253Z,56.57
2023-02-19T04:33:06.347Z,56.13
2023-02-19T04:35:35.818Z,56.23
2023-02-19T04:38:03.892Z,55.50
2023-02-19T04:40:32.125Z,55.83
2023-02-19T04:43:00.146Z,56.10
2023-02-19T04:45:28.222Z,56.00
2023-02-19T04:47:56.311Z,56.13
2023-02-19T04:50:24.335Z,56.40
2023-02-19T04:52:53.789Z,56.93
2023-02-19T04:55:21.909Z,55.80
2023-02-19T04:57:50.031Z,56.57
2023-02-19T05:00:18.186Z,56.80
2023-02-19T05:02:46.247Z,56.17
2023-02-19T05:05:14.354Z,56.10
2023-02-19T05:07:42.397Z,56.20
2023-02-19T05:10:11.859Z,55.87
2023-02-19T05:12:39.895Z,55.67
2023-02-19T05:15:08.451Z,54.43
2023-02-19T05:17:36.977Z,55.00
2023-02-19T05:20:05.449Z,56.03
2023-02-19T05:22:33.520Z,55.13
2023-02-19T05:25:01.548Z,54.57
2023-02-19T05:27:33.015Z,55.00
2023-02-19T05:30:01.114Z,54.23
2023-02-19T05:32:29.212Z,53.77
2023-02-19T05:34:57.330Z,54.77
2023-02-19T05:37:25.338Z,53.80
2023-02-19T05:39:53.395Z,53.17
2023-02-19T05:42:21.541Z,52.90
2023-02-19T05:44:50.986Z,52.70
2023-02-19T05:47:18.997Z,52.30
2023-02-19T05:49:47.096Z,51.20
2023-02-19T05:52:15.135Z,51.80
2023-02-19T05:54:43.277Z,51.27
2023-02-19T05:57:11.459Z,51.10
2023-02-19T05:59:39.507Z,50.47
2023-02-19T06:02:08.952Z,50.90
2023-02-19T06:04:37.468Z,50.50
2023-02-19T06:07:05.532Z,50.57
2023-02-19T06:09:33.576Z,50.73
2023-02-19T06:12:01.615Z,51.10
2023-02-19T06:14:29.767Z,50.60
2023-02-19T06:16:57.786Z,50.80
2023-02-19T06:19:27.211Z,50.90
2023-02-19T06:21:55.269Z,50.77
2023-02-19T06:24:23.482Z,50.87
2023-02-19T06:26:51.520Z,50.93
2023-02-19T06:29:19.659Z,51.60
2023-02-19T06:31:47.808Z,51.33
2023-02-19T06:34:15.921Z,51.60
2023-02-19T06:36:45.346Z,50.97
2023-02-19T06:39:13.379Z,51.63
2023-02-19T06:41:41.408Z,51.70
2023-02-19T06:44:09.502Z,51.03
2023-02-19T06:46:37.988Z,51.37
2023-02-19T06:49:06.575Z,50.60
2023-02-19T06:51:34.952Z,51.00
2023-02-19T06:54:04.510Z,52.00
2023-02-19T06:56:34.084Z,51.90
2023-02-19T06:59:04.666Z,51.80
2023-02-19T07:01:34.200Z,51.73
2023-02-19T07:04:02.766Z,51.93
2023-02-19T07:06:31.570Z,51.00
2023-02-19T07:09:00.448Z,51.83
2023-02-19T07:11:31.975Z,51.27
2023-02-19T07:14:01.682Z,51.97
2023-02-19T07:16:30.444Z,52.27
2023-02-19T07:18:59.146Z,51.80
2023-02-19T07:21:28.096Z,52.40
2023-02-19T07:23:56.488Z,52.37
2023-02-19T07:26:25.446Z,52.83
2023-02-19T07:28:54.924Z,52.03
2023-02-19T07:31:25.150Z,51.60
2023-02-19T07:33:53.860Z,51.30
2023-02-19T07:36:23.524Z,51.20
2023-02-19T07:38:55.658Z,50.33
2023-02-19T07:41:24.423Z,49.77
2023-02-19T07:43:52.921Z,47.70
2023-02-19T07:46:23.783Z,47.37
2023-02-19T07:48:51.840Z,47.03
2023-02-19T07:51:21.642Z,45.40
2023-02-19T07:53:51.387Z,45.00
2023-02-19T07:56:20.526Z,45.03
2023-02-19T07:58:48.655Z,44.60
2023-02-19T08:01:18.487Z,45.50
2023-02-19T08:03:49.435Z,45.60
2023-02-19T08:06:18.399Z,46.03
2023-02-19T08:08:46.417Z,47.30
2023-02-19T08:11:43.044Z,48.07
2023-02-19T08:14:11.049Z,49.73
2023-02-19T08:16:43.217Z,48.97
2023-02-19T08:19:12.921Z,50.33
2023-02-19T08:21:41.052Z,51.20
2023-02-19T08:24:09.238Z,51.57
2023-02-19T08:26:37.563Z,52.50
2023-02-19T08:29:06.221Z,52.50
2023-02-19T08:31:35.480Z,53.23
2023-02-19T08:34:04.164Z,52.97
2023-02-19T08:36:33.617Z,52.60
2023-02-19T08:39:01.687Z,52.77
2023-02-19T08:41:29.715Z,53.47
2023-02-19T08:43:57.893Z,53.17
2023-02-19T08:46:26.092Z,50.77
2023-02-19T08:48:54.193Z,50.73
2023-02-19T08:51:22.238Z,47.53
2023-02-19T08:53:51.690Z,46.93
2023-02-19T08:56:19.746Z,43.17
2023-02-19T08:58:48.076Z,42.50
2023-02-19T09:01:19.163Z,40.70
2023-02-19T09:03:47.403Z,41.23
2023-02-19T09:06:18.424Z,41.93
2023-02-19T09:08:47.021Z,42.70
2023-02-19T09:11:16.752Z,43.37
2023-02-19T09:13:44.915Z,44.43
2023-02-19T09:16:13.513Z,46.07
2023-02-19T09:18:41.610Z,47.80
2023-02-19T09:21:10.064Z,48.20
2023-02-19T09:23:38.678Z,48.70
2023-02-19T09:26:10.268Z,46.80
2023-02-19T09:28:42.047Z,44.53
2023-02-19T09:31:12.379Z,42.27
2023-02-19T09:33:44.452Z,41.90
2023-02-19T09:36:13.447Z,42.53
2023-02-19T09:38:41.618Z,41.27
2023-02-19T09:41:15.312Z,39.77
2023-02-19T09:43:45.236Z,39.97
2023-02-19T09:46:24.786Z,39.43
2023-02-19T09:48:54.358Z,39.37
2023-02-19T09:51:24.050Z,39.50
2023-02-19T09:53:53.217Z,40.23
2023-02-19T09:56:21.314Z,41.00
2023-02-19T09:58:53.986Z,42.27
2023-02-19T10:01:23.757Z,42.30
2023-02-19T10:03:51.888Z,42.63
2023-02-19T10:06:23.576Z,43.73
2023-02-19T10:08:54.029Z,46.47
2023-02-19T10:11:23.661Z,46.07
2023-02-19T10:14:09.436Z,44.53
2023-02-19T10:16:41.710Z,44.70
2023-02-19T10:19:12.165Z,44.83
2023-02-19T10:21:40.699Z,43.30
2023-02-19T10:24:14.940Z,37.27
2023-02-19T10:26:43.092Z,33.53
2023-02-19T10:29:12.602Z,33.30
2023-02-19T10:31:40.734Z,32.83
2023-02-19T10:34:19.491Z,33.23
2023-02-19T10:36:50.355Z,33.20
2023-02-19T10:39:42.939Z,32.27
2023-02-19T10:42:19.400Z,33.27
2023-02-19T10:44:52.882Z,32.40
2023-02-19T10:47:24.194Z,33.00
2023-02-19T10:49:53.689Z,33.67
2023-02-19T10:52:26.693Z,33.90
2023-02-19T10:54:57.751Z,35.00
2023-02-19T10:57:33.018Z,35.30
2023-02-19T11:00:05.545Z,34.67
2023-02-19T11:02:33.664Z,34.13
2023-02-19T11:05:08.523Z,33.37
2023-02-19T11:07:38.508Z,33.37
2023-02-19T11:10:08.890Z,32.43
2023-02-19T11:12:37.001Z,32.80
2023-02-19T11:15:22.358Z,36.03
2023-02-19T11:17:56.904Z,34.70
2023-02-19T11:20:25.576Z,38.90
2023-02-19T11:22:59.669Z,34.50
2023-02-19T11:25:28.474Z,32.60
2023-02-19T11:27:59.425Z,32.17
2023-02-19T11:30:38.130Z,29.30
2023-02-19T11:33:24.014Z,31.20
2023-02-19T11:35:55.075Z,31.63
2023-02-19T11:38:23.271Z,32.33
2023-02-19T11:40:59.741Z,33.30
2023-02-19T11:43:44.188Z,33.00
2023-02-19T11:46:22.290Z,34.43
2023-02-19T11:49:10.327Z,32.83
2023-02-19T11:52:03.125Z,33.07
2023-02-19T11:54:48.766Z,35.00
2023-02-19T11:57:28.697Z,33.07
2023-02-19T12:00:13.784Z,33.13
2023-02-19T12:03:04.408Z,34.10
2023-02-19T12:05:41.328Z,32.90
2023-02-19T12:08:32.544Z,30.87
2023-02-19T12:11:13.048Z,30.40
2023-02-19T12:14:03.065Z,29.57
2023-02-19T12:16:35.674Z,30.43
2023-02-19T12:19:43.613Z,29.20
2023-02-19T12:22:26.534Z,27.33
2023-02-19T12:25:23.741Z,26.00
2023-02-19T12:28:19.758Z,25.80
2023-02-19T12:31:09.024Z,25.87
2023-02-19T12:34:02.783Z,25.53
2023-02-19T12:36:38.822Z,25.10
2023-02-19T12:39:19.722Z,24.80
2023-02-19T12:41:57.470Z,25.63
2023-02-19T12:44:37.089Z,25.30
2023-02-19T12:47:08.420Z,26.67
2023-02-19T12:49:40.484Z,24.00
2023-02-19T12:52:16.111Z,23.30
2023-02-19T12:54:47.531Z,23.10
2023-02-19T12:57:19.667Z,24.47
2023-02-19T12:59:51.630Z,23.63
2023-02-19T13:02:24.886Z,22.70
2023-02-19T13:05:01.265Z,22.50
2023-02-19T13:07:34.660Z,23.10
2023-02-19T13:10:23.083Z,23.30
2023-02-19T13:12:53.185Z,22.23
2023-02-19T13:15:26.128Z,20.23
2023-02-19T13:17:57.184Z,18.50
2023-02-19T13:20:32.591Z,17.60
2023-02-19T13:23:26.232Z,16.93
2023-02-19T13:26:12.092Z,16.33
2023-02-19T13:28:53.374Z,14.63
2023-02-19T13:31:43.203Z,14.30
2023-02-19T13:34:18.845Z,13.47
2023-02-19T13:36:49.153Z,12.90
2023-02-19T13:39:22.324Z,12.57
2023-02-19T13:41:52.873Z,13.23
2023-02-19T13:44:23.236Z,13.00
2023-02-19T13:46:51.841Z,12.47
2023-02-19T13:49:43.153Z,12.67
2023-02-19T13:52:50.821Z,12.10
2023-02-19T13:55:52.028Z,12.40
2023-02-19T13:58:58.242Z,12.30
2023-02-19T14:02:08.898Z,13.70
2023-02-19T14:04:51.237Z,13.47
2023-02-19T14:07:35.618Z,13.00
2023-02-19T14:10:04.892Z,13.90
2023-02-19T14:12:36.170Z,14.73
2023-02-19T14:15:41.665Z,13.90
2023-02-19T14:18:45.074Z,13.80
2023-02-19T14:21:23.481Z,13.57
2023-02-19T14:23:55.055Z,13.53
2023-02-19T14:26:24.767Z,12.90
2023-02-19T14:28:55.209Z,11.90
2023-02-19T14:31:29.230Z,11.50
2023-02-19T14:34:00.593Z,10.50
2023-02-19T14:36:35.012Z,10.50
2023-02-19T14:39:06.738Z,11.00
2023-02-19T14:41:40.452Z,10.70
2023-02-19T14:44:18.157Z,9.73
2023-02-19T14:46:54.528Z,9.03
2023-02-19T14:49:29.254Z,9.03
2023-02-19T14:52:01.038Z,8.60
2023-02-19T14:54:45.761Z,8.03
2023-02-19T14:57:19.002Z,8.70
2023-02-19T14:59:57.876Z,8.63
2023-02-19T15:02:27.210Z,8.10
2023-02-19T15:04:56.244Z,7.97
2023-02-19T15:07:27.677Z,8.27
2023-02-19T15:10:03.627Z,8.97
2023-02-19T15:12:36.102Z,9.60
2023-02-19T15:15:07.284Z,10.77
2023-02-19T15:17:40.334Z,10.10
2023-02-19T15:20:13.495Z,11.30
2023-02-19T15:22:42.713Z,10.47
2023-02-19T15:25:17.558Z,10.70
2023-02-19T15:27:45.763Z,9.87
2023-02-19T15:30:24.049Z,9.87
2023-02-19T15:32:57.169Z,10.57
2023-02-19T15:35:27.507Z,10.67
2023-02-19T15:37:56.530Z,11.10
2023-02-19T15:40:30.624Z,11.00
2023-02-19T15:43:00.380Z,11.60
2023-02-19T15:45:35.346Z,11.10
2023-02-19T15:48:08.193Z,11.27
2023-02-19T15:50:40.107Z,11.03
2023-02-19T15:53:13.325Z,11.10
2023-02-19T15:55:46.035Z,10.93
2023-02-19T15:58:18.861Z,10.90
2023-02-19T16:00:50.920Z,11.70
2023-02-19T16:03:21.372Z,11.70
2023-02-19T16:05:59.873Z,12.10
2023-02-19T16:08:31.432Z,11.80
2023-02-19T16:11:01.540Z,11.90
2023-02-19T16:13:31.548Z,11.93
2023-02-19T16:16:16.200Z,12.27
2023-02-19T16:18:47.767Z,13.03
2023-02-19T16:21:18.323Z,13.57
2023-02-19T16:23:49.394Z,12.53
2023-02-19T16:26:18.659Z,11.50
2023-02-19T16:28:52.896Z,10.77
2023-02-19T16:31:25.125Z,10.60
2023-02-19T16:33:53.557Z,10.50
2023-02-19T16:36:41.852Z,10.40
2023-02-19T16:39:21.215Z,11.10
2023-02-19T16:42:14.583Z,11.37
2023-02-19T16:44:44.369Z,10.77
2023-02-19T16:47:24.248Z,10.77
2023-02-19T16:49:52.642Z,9.00
2023-02-19T16:52:20.693Z,8.43
2023-02-19T16:54:49.651Z,8.37
2023-02-19T16:57:18.400Z,7.57
2023-02-19T16:59:46.439Z,7.20
2023-02-19T17:02:22.321Z,7.77
2023-02-19T17:04:51.959Z,7.60
2023-02-19T17:07:20.176Z,7.70
2023-02-19T17:09:48.312Z,7.90
2023-02-19T17:12:18.160Z,8.23
2023-02-19T17:14:46.287Z,8.40
2023-02-19T17:17:14.558Z,7.67
2023-02-19T17:19:44.083Z,7.03
2023-02-19T17:22:16.837Z,7.63
2023-02-19T17:24:46.045Z,6.60
2023-02-19T17:27:14.496Z,6.90
2023-02-19T17:29:42.795Z,7.87
2023-02-19T17:32:10.994Z,7.67
2023-02-19T17:34:39.087Z,7.97
2023-02-19T17:37:08.529Z,8.00
2023-02-19T17:39:36.560Z,8.17
2023-02-19T17:42:05.371Z,8.07
2023-02-19T17:44:33.501Z,8.70
2023-02-19T17:47:02.240Z,9.07
2023-02-19T17:49:30.301Z,9.07
2023-02-19T17:51:59.658Z,9.00
2023-02-19T17:54:29.086Z,8.80
2023-02-19T17:56:57.274Z,8.30
2023-02-19T17:59:25.350Z,8.60
2023-02-19T18:01:53.421Z,9.30
2023-02-19T18:04:21.554Z,9.27
2023-02-19T18:06:49.592Z,9.90
2023-02-19T18:09:19.471Z,9.30
2023-02-19T18:11:49.429Z,9.50
2023-02-19T18:14:17.640Z,10.00
2023-02-19T18:16:50.358Z,9.07
2023-02-19T18:19:18.935Z,9.20
2023-02-19T18:21:48.268Z,9.17
2023-02-19T18:24:16.625Z,9.33
2023-02-19T18:26:44.875Z,9.90
2023-02-19T18:29:14.673Z,10.03
2023-02-19T18:31:42.881Z,10.73
2023-02-19T18:34:18.052Z,9.73
2023-02-19T18:36:46.631Z,9.90
2023-02-19T18:39:14.905Z,9.87
2023-02-19T18:41:47.092Z,10.00
2023-02-19T18:44:18.724Z,10.80
2023-02-19T18:46:47.007Z,10.33
2023-02-19T18:49:16.471Z,10.40
2023-02-19T18:51:44.805Z,10.77
2023-02-19T18:54:12.987Z,11.63
2023-02-19T18:56:44.725Z,11.20
2023-02-19T18:59:14.000Z,10.50
2023-02-19T19:01:43.946Z,11.33
2023-02-19T19:04:12.355Z,12.10
2023-02-19T19:06:40.462Z,10.90
2023-02-19T19:09:09.154Z,10.53
2023-02-19T19:11:38.168Z,11.73
2023-02-19T19:14:06.287Z,11.73
2023-02-19T19:16:34.451Z,11.00
2023-02-19T19:19:04.028Z,11.37
2023-02-19T19:21:32.232Z,11.77
2023-02-19T19:24:00.545Z,11.17
2023-02-19T19:26:28.704Z,11.67
2023-02-19T19:28:56.895Z,11.70
2023-02-19T19:31:25.547Z,11.73
2023-02-19T19:33:54.042Z,12.17
2023-02-19T19:36:24.726Z,12.77
2023-02-19T19:38:52.974Z,11.97
2023-02-19T19:41:22.096Z,13.27
2023-02-19T19:43:50.191Z,13.40
2023-02-19T19:46:19.942Z,12.60
2023-02-19T19:48:48.775Z,13.63
2023-02-19T19:51:17.754Z,14.00
2023-02-19T19:53:50.126Z,13.43
2023-02-19T19:56:18.718Z,13.70
2023-02-19T19:58:48.747Z,13.80
2023-02-19T20:01:21.129Z,14.63
2023-02-19T20:03:51.119Z,14.07
2023-02-19T20:06:27.131Z,14.37
2023-02-19T20:08:57.031Z,13.47
2023-02-19T20:11:25.592Z,14.07
2023-02-19T20:13:53.825Z,14.30
2023-02-19T20:16:25.968Z,13.70
2023-02-19T20:18:54.071Z,14.83
2023-02-19T20:21:22.198Z,15.10
2023-02-19T20:23:50.539Z,15.70
2023-02-19T20:26:26.113Z,14.53
2023-02-19T20:28:56.563Z,14.53
2023-02-19T20:31:25.458Z,15.30
2023-02-19T20:33:54.492Z,14.97
2023-02-19T20:36:22.649Z,14.70
2023-02-19T20:38:51.288Z,14.93
2023-02-19T20:41:19.434Z,14.03
2023-02-19T20:43:48.951Z,14.43
2023-02-19T20:46:17.327Z,14.13
2023-02-19T20:48:46.121Z,14.57
2023-02-19T20:51:14.281Z,14.40
2023-02-19T20:53:43.494Z,14.87
2023-02-19T20:56:12.644Z,15.20
2023-02-19T20:58:43.366Z,13.97
2023-02-19T21:01:13.272Z,15.50
2023-02-19T21:03:41.671Z,14.50
2023-02-19T21:06:10.167Z,13.93
2023-02-19T21:08:38.356Z,13.40
2023-02-19T21:11:06.933Z,13.97
2023-02-19T21:13:35.202Z,13.57
2023-02-19T21:16:03.669Z,14.40
2023-02-19T21:18:33.213Z,13.77
2023-02-19T21:21:01.584Z,14.70
2023-02-19T21:23:29.692Z,14.70
2023-02-19T21:25:57.981Z,14.67
2023-02-19T21:28:26.142Z,15.03
2023-02-19T21:30:54.299Z,15.80
2023-02-19T21:33:22.359Z,16.67
2023-02-19T21:35:51.848Z,18.17
2023-02-19T21:38:19.988Z,19.00
2023-02-19T21:40:48.093Z,18.40
2023-02-19T21:43:16.482Z,17.60
2023-02-19T21:45:44.596Z,18.00
2023-02-19T21:48:14.137Z,17.87
2023-02-19T21:50:45.543Z,18.80
2023-02-19T21:53:15.606Z,18.17
2023-02-19T21:55:57.440Z,18.23
2023-02-19T21:58:26.917Z,17.87
2023-02-19T22:00:56.402Z,16.53
2023-02-19T22:03:26.568Z,17.67
2023-02-19T22:05:54.783Z,17.23
2023-02-19T22:08:24.249Z,16.37
2023-02-19T22:10:52.334Z,17.27
2023-02-19T22:13:20.423Z,16.80
2023-02-19T22:15:48.561Z,18.07
2023-02-19T22:18:16.721Z,17.73
2023-02-19T22:20:44.785Z,19.17
2023-02-19T22:23:12.931Z,17.97
2023-02-19T22:25:42.545Z,18.03
2023-02-19T22:28:10.642Z,18.37
2023-02-19T22:30:38.848Z,19.20
2023-02-19T22:33:07.129Z,19.73
2023-02-19T22:35:35.217Z,20.30
2023-02-19T22:38:03.283Z,19.73
2023-02-19T22:40:31.397Z,19.77
2023-02-19T22:43:00.841Z,19.80
2023-02-19T22:45:28.866Z,20.00
2023-02-19T22:47:57.148Z,20.80
2023-02-19T22:50:26.529Z,20.40
2023-02-19T22:52:55.726Z,20.67
2023-02-19T22:55:23.833Z,22.00
2023-02-19T22:57:51.945Z,21.93
2023-02-19T23:00:22.452Z,21.77
2023-02-19T23:02:50.752Z,21.43
2023-02-19T23:05:19.057Z,21.70
2023-02-19T23:07:47.411Z,20.93
2023-02-19T23:10:15.675Z,21.57
2023-02-19T23:12:43.867Z,21.67
2023-02-19T23:15:12.450Z,20.53
2023-02-19T23:17:41.940Z,19.40
2023-02-19T23:20:10.654Z,19.50
2023-02-19T23:22:38.749Z,19.57
2023-02-19T23:25:07.418Z,19.33
2023-02-19T23:27:35.464Z,20.07
2023-02-19T23:30:03.555Z,19.67
2023-02-19T23:32:31.612Z,20.30
2023-02-19T23:35:01.067Z,19.50
2023-02-19T23:37:29.135Z,19.77
2023-02-19T23:39:57.191Z,19.97
2023-02-19T23:42:25.260Z,20.60
2023-02-19T23:44:53.326Z,20.00
2023-02-19T23:47:22.538Z,20.50
2023-02-19T23:49:50.612Z,20.13
2023-02-19T23:52:20.024Z,20.87
2023-02-19T23:54:48.462Z,20.37
2023-02-19T23:57:16.439Z,20.53
2023-02-19T23:59:44.894Z,20.27
